createdAt,value
2023-05-20T00:00:02.122Z,8.07
2023-05-20T00:02:30.705Z,8.17
2023-05-20T00:04:59.334Z,8.20
2023-05-20T00:07:29.386Z,8.03
2023-05-20T00:09:57.968Z,7.40
2023-05-20T00:12:26.471Z,8.07
2023-05-20T00:14:56.028Z,7.87
2023-05-20T00:17:26.535Z,8.13
2023-05-20T00:19:55.076Z,8.93
2023-05-20T00:22:23.566Z,8.40
2023-05-20T00:24:53.482Z,8.20
2023-05-20T00:27:21.966Z,8.83
2023-05-20T00:29:50.682Z,8.27
2023-05-20T00:32:19.313Z,9.63
2023-05-20T00:34:57.343Z,9.33
2023-05-20T00:37:25.842Z,8.80
2023-05-20T00:39:55.827Z,8.67
2023-05-20T00:42:24.325Z,8.80
2023-05-20T00:44:52.869Z,9.27
2023-05-20T00:47:22.690Z,8.60
2023-05-20T00:49:52.130Z,9.90
2023-05-20T00:52:21.474Z,9.23
2023-05-20T00:54:51.485Z,9.60
2023-05-20T00:57:21.857Z,10.00
2023-05-20T00:59:50.578Z,9.20
2023-05-20T01:02:19.118Z,10.30
2023-05-20T01:04:47.749Z,10.23
2023-05-20T01:07:17.372Z,9.97
2023-05-20T01:09:46.328Z,9.33
2023-05-20T01:12:18.012Z,10.17
2023-05-20T01:14:51.622Z,10.00
2023-05-20T01:17:22.287Z,10.43
2023-05-20T01:19:50.896Z,9.23
2023-05-20T01:22:19.307Z,10.50
2023-05-20T01:24:49.445Z,9.40
2023-05-20T01:27:20.937Z,9.73
2023-05-20T01:29:50.634Z,9.65
2023-05-20T01:32:21.228Z,10.60
2023-05-20T01:34:50.541Z,10.00
2023-05-20T01:37:19.571Z,10.20
2023-05-20T01:39:51.262Z,10.45
2023-05-20T01:42:19.774Z,10.07
2023-05-20T01:44:48.455Z,10.17
2023-05-20T01:47:16.892Z,10.40
2023-05-20T01:49:46.206Z,10.50
2023-05-20T01:52:14.742Z,11.13
2023-05-20T01:54:43.268Z,10.50
2023-05-20T01:57:13.266Z,9.87
2023-05-20T01:59:41.729Z,10.30
2023-05-20T02:02:10.320Z,9.93
2023-05-20T02:04:38.802Z,10.97
2023-05-20T02:07:07.318Z,10.53
2023-05-20T02:09:35.778Z,9.97
2023-05-20T02:12:04.265Z,11.17
2023-05-20T02:14:34.152Z,10.93
2023-05-20T02:17:02.657Z,10.73
2023-05-20T02:19:31.141Z,10.50
2023-05-20T02:21:59.742Z,10.50
2023-05-20T02:24:28.344Z,10.17
2023-05-20T02:26:58.938Z,9.70
2023-05-20T02:29:27.433Z,9.70
2023-05-20T02:31:57.258Z,9.83
2023-05-20T02:34:26.328Z,9.67
2023-05-20T02:36:55.452Z,10.50
2023-05-20T02:39:24.080Z,10.07
2023-05-20T02:41:52.507Z,9.57
2023-05-20T02:44:21.492Z,9.40
2023-05-20T02:46:49.945Z,9.43
2023-05-20T02:49:19.748Z,9.87
2023-05-20T02:51:48.225Z,10.20
2023-05-20T02:54:17.138Z,8.87
2023-05-20T02:56:45.578Z,9.53
2023-05-20T02:59:14.071Z,8.70
2023-05-20T03:01:42.973Z,9.27
2023-05-20T03:04:11.680Z,8.67
2023-05-20T03:06:44.450Z,8.97
2023-05-20T03:09:14.066Z,9.23
2023-05-20T03:11:42.504Z,8.80
2023-05-20T03:14:10.990Z,9.20
2023-05-20T03:16:39.448Z,9.27
2023-05-20T03:19:07.933Z,9.33
2023-05-20T03:21:36.439Z,9.33
2023-05-20T03:24:07.351Z,9.20
2023-05-20T03:26:37.751Z,8.88
2023-05-20T03:29:07.359Z,8.77
2023-05-20T03:31:35.916Z,8.57
2023-05-20T03:34:04.413Z,9.50
2023-05-20T03:36:32.872Z,8.70
2023-05-20T03:39:01.848Z,9.03
2023-05-20T03:41:31.705Z,8.47
2023-05-20T03:44:00.223Z,8.63
2023-05-20T03:46:28.692Z,8.87
2023-05-20T03:48:57.160Z,8.93
2023-05-20T03:51:25.926Z,8.53
2023-05-20T03:53:54.334Z,8.70
2023-05-20T03:56:23.101Z,8.70
2023-05-20T03:58:53.574Z,8.37
2023-05-20T04:01:25.723Z,8.53
2023-05-20T04:03:54.221Z,8.20
2023-05-20T04:06:22.843Z,8.30
2023-05-20T04:08:53.007Z,8.40
2023-05-20T04:11:21.513Z,8.53
2023-05-20T04:13:49.944Z,8.80
2023-05-20T04:16:20.060Z,8.17
2023-05-20T04:18:49.131Z,8.40
2023-05-20T04:21:18.896Z,8.17
2023-05-20T04:23:47.356Z,8.57
2023-05-20T04:26:15.807Z,9.00
2023-05-20T04:28:44.290Z,8.53
2023-05-20T04:31:12.841Z,8.77
2023-05-20T04:33:43.253Z,8.40
2023-05-20T04:36:12.231Z,9.07
2023-05-20T04:38:42.377Z,9.20
2023-05-20T04:41:10.934Z,9.87
2023-05-20T04:43:40.337Z,9.30
2023-05-20T04:46:09.760Z,9.47
2023-05-20T04:48:38.330Z,8.85
2023-05-20T04:51:08.787Z,9.83
2023-05-20T04:53:37.356Z,10.23
2023-05-20T04:56:06.026Z,9.17
2023-05-20T04:58:34.557Z,9.73
2023-05-20T05:01:03.355Z,9.07
2023-05-20T05:03:31.876Z,9.57
2023-05-20T05:06:00.325Z,9.35
2023-05-20T05:08:30.235Z,8.95
2023-05-20T05:10:58.655Z,9.10
2023-05-20T05:13:27.136Z,9.20
2023-05-20T05:16:02.350Z,10.20
2023-05-20T05:18:30.944Z,8.53
2023-05-20T05:21:03.300Z,9.35
2023-05-20T05:23:33.262Z,9.83
2023-05-20T05:26:01.886Z,9.75
2023-05-20T05:28:30.488Z,9.80
2023-05-20T05:30:58.959Z,9.68
2023-05-20T05:33:27.471Z,10.18
2023-05-20T05:35:56.827Z,9.80
2023-05-20T05:38:25.249Z,10.23
2023-05-20T05:40:55.076Z,10.40
2023-05-20T05:43:23.572Z,10.50
2023-05-20T05:45:52.250Z,10.90
2023-05-20T05:48:20.713Z,10.55
2023-05-20T05:50:49.202Z,10.90
2023-05-20T05:53:17.832Z,11.30
2023-05-20T05:55:47.911Z,11.45
2023-05-20T05:58:17.758Z,10.90
2023-05-20T06:00:46.288Z,11.00
2023-05-20T06:03:14.859Z,10.75
2023-05-20T06:05:47.346Z,10.63
2023-05-20T06:08:15.842Z,10.82
2023-05-20T06:10:44.406Z,11.70
2023-05-20T06:13:12.930Z,11.80
2023-05-20T06:15:43.678Z,11.60
2023-05-20T06:18:12.144Z,11.40
2023-05-20T06:20:41.062Z,12.23
2023-05-20T06:23:09.519Z,11.07
2023-05-20T06:25:37.993Z,11.73
2023-05-20T06:28:06.621Z,10.57
2023-05-20T06:30:35.116Z,11.23
2023-05-20T06:33:05.075Z,11.18
2023-05-20T06:35:35.311Z,11.73
2023-05-20T06:38:04.141Z,11.90
2023-05-20T06:40:32.628Z,10.52
2023-05-20T06:43:01.135Z,9.30
2023-05-20T06:45:29.591Z,7.38
2023-05-20T06:47:58.031Z,6.15
2023-05-20T06:50:28.407Z,7.60
2023-05-20T06:52:56.939Z,5.32
2023-05-20T06:55:26.348Z,5.85
2023-05-20T06:57:55.216Z,5.65
2023-05-20T07:00:23.748Z,6.13
2023-05-20T07:02:52.399Z,6.07
2023-05-20T07:05:20.886Z,5.25
2023-05-20T07:07:50.962Z,6.45
2023-05-20T07:10:19.858Z,5.07
2023-05-20T07:12:48.335Z,5.55
2023-05-20T07:15:17.991Z,6.05
2023-05-20T07:17:46.528Z,6.78
2023-05-20T07:20:15.143Z,6.15
2023-05-20T07:22:44.128Z,6.07
2023-05-20T07:25:14.117Z,6.20
2023-05-20T07:27:42.612Z,6.00
2023-05-20T07:30:11.344Z,6.63
2023-05-20T07:32:39.928Z,7.00
2023-05-20T07:35:08.648Z,6.00
2023-05-20T07:37:37.099Z,6.13
2023-05-20T07:40:07.281Z,7.40
2023-05-20T07:42:37.173Z,7.20
2023-05-20T07:45:06.321Z,6.22
2023-05-20T07:47:34.742Z,6.70
2023-05-20T07:50:03.247Z,8.77
2023-05-20T07:52:35.665Z,8.07
2023-05-20T07:55:13.409Z,8.18
2023-05-20T07:57:44.722Z,7.57
2023-05-20T08:00:14.762Z,7.43
2023-05-20T08:02:43.403Z,7.68
2023-05-20T08:05:11.975Z,9.20
2023-05-20T08:07:40.509Z,8.40
2023-05-20T08:10:09.802Z,9.00
2023-05-20T08:12:38.255Z,8.80
2023-05-20T08:15:09.077Z,8.73
2023-05-20T08:17:38.846Z,8.90
2023-05-20T08:20:09.605Z,9.15
2023-05-20T08:22:38.107Z,9.05
2023-05-20T08:25:09.419Z,8.68
2023-05-20T08:27:37.891Z,10.07
2023-05-20T08:30:10.007Z,10.73
2023-05-20T08:32:38.552Z,10.43
2023-05-20T08:35:07.656Z,12.60
2023-05-20T08:37:36.288Z,13.60
2023-05-20T08:40:06.584Z,12.88
2023-05-20T08:42:35.026Z,11.50
2023-05-20T08:45:03.966Z,10.65
2023-05-20T08:47:34.080Z,10.00
2023-05-20T08:50:03.356Z,10.52
2023-05-20T08:52:34.009Z,10.13
2023-05-20T08:55:02.757Z,11.82
2023-05-20T08:57:31.454Z,11.77
2023-05-20T09:00:01.242Z,12.23
2023-05-20T09:02:29.757Z,13.20
2023-05-20T09:04:59.614Z,12.82
2023-05-20T09:07:28.903Z,13.60
2023-05-20T09:09:57.354Z,12.57
2023-05-20T09:12:25.955Z,13.57
2023-05-20T09:14:54.444Z,13.30
2023-05-20T09:17:23.263Z,14.60
2023-05-20T09:19:51.980Z,13.40
2023-05-20T09:22:25.535Z,13.43
2023-05-20T09:24:54.046Z,14.18
2023-05-20T09:27:22.523Z,14.35
2023-05-20T09:29:51.183Z,14.15
2023-05-20T09:32:20.036Z,15.40
2023-05-20T09:34:48.926Z,14.82
2023-05-20T09:37:19.874Z,15.52
2023-05-20T09:39:59.634Z,14.82
2023-05-20T09:42:29.844Z,15.32
2023-05-20T09:44:58.933Z,16.02
2023-05-20T09:47:28.280Z,16.73
2023-05-20T09:49:56.904Z,15.60
2023-05-20T09:52:26.373Z,16.65
2023-05-20T09:54:56.764Z,17.15
2023-05-20T09:57:25.489Z,16.48
2023-05-20T09:59:54.711Z,17.00
2023-05-20T10:02:23.472Z,16.88
2023-05-20T10:04:53.416Z,18.05
2023-05-20T10:07:41.928Z,18.65
2023-05-20T10:10:21.001Z,17.80
2023-05-20T10:12:53.885Z,17.67
2023-05-20T10:15:25.950Z,17.40
2023-05-20T10:18:01.441Z,17.27
2023-05-20T10:20:30.079Z,16.50
2023-05-20T10:22:59.244Z,18.33
2023-05-20T10:25:29.910Z,18.27
2023-05-20T10:28:09.702Z,20.83
2023-05-20T10:30:40.682Z,20.10
2023-05-20T10:33:11.115Z,18.45
2023-05-20T10:35:49.332Z,21.05
2023-05-20T10:38:17.847Z,19.27
2023-05-20T10:40:47.664Z,20.20
2023-05-20T10:43:17.031Z,21.00
2023-05-20T10:45:52.351Z,18.52
2023-05-20T10:48:26.374Z,19.92
2023-05-20T10:50:58.067Z,20.88
2023-05-20T10:53:33.982Z,20.55
2023-05-20T10:56:04.470Z,19.27
2023-05-20T10:58:38.736Z,19.30
2023-05-20T11:01:07.332Z,18.48
2023-05-20T11:03:37.310Z,19.15
2023-05-20T11:06:12.800Z,17.50
2023-05-20T11:08:41.264Z,18.63
2023-05-20T11:11:12.409Z,18.92
2023-05-20T11:13:40.881Z,18.85
2023-05-20T11:16:09.462Z,19.35
2023-05-20T11:18:37.934Z,20.55
2023-05-20T11:21:06.735Z,20.23
2023-05-20T11:23:35.176Z,21.23
2023-05-20T11:26:03.715Z,21.88
2023-05-20T11:28:33.848Z,18.77
2023-05-20T11:31:02.353Z,14.93
2023-05-20T11:33:31.674Z,16.75
2023-05-20T11:36:00.204Z,17.15
2023-05-20T11:38:28.862Z,17.02
2023-05-20T11:40:58.079Z,16.75
2023-05-20T11:43:26.855Z,17.17
2023-05-20T11:45:59.331Z,16.33
2023-05-20T11:48:28.041Z,16.73
2023-05-20T11:50:58.467Z,16.50
2023-05-20T11:53:28.492Z,15.52
2023-05-20T11:55:57.554Z,19.38
2023-05-20T11:58:26.511Z,17.77
2023-05-20T12:01:05.195Z,17.55
2023-05-20T12:03:44.160Z,16.65
2023-05-20T12:06:14.400Z,17.80
2023-05-20T12:08:42.859Z,18.95
2023-05-20T12:11:11.331Z,19.70
2023-05-20T12:13:40.160Z,18.52
2023-05-20T12:16:08.610Z,17.33
2023-05-20T12:18:37.580Z,18.70
2023-05-20T12:21:07.454Z,21.13
2023-05-20T12:23:35.899Z,20.20
2023-05-20T12:26:05.645Z,21.88
2023-05-20T12:28:34.383Z,19.13
2023-05-20T12:31:02.876Z,20.23
2023-05-20T12:33:31.339Z,22.38
2023-05-20T12:35:59.962Z,20.75
2023-05-20T12:38:29.972Z,21.33
2023-05-20T12:40:58.434Z,21.00
2023-05-20T12:43:26.944Z,18.88
2023-05-20T12:45:55.995Z,19.25
2023-05-20T12:48:24.415Z,18.52
2023-05-20T12:50:53.085Z,16.90
2023-05-20T12:53:21.602Z,17.63
2023-05-20T12:55:51.509Z,18.30
2023-05-20T12:58:20.001Z,17.73
2023-05-20T13:00:48.535Z,17.45
2023-05-20T13:03:17.100Z,17.92
2023-05-20T13:05:45.740Z,16.27
2023-05-20T13:08:14.904Z,16.38
2023-05-20T13:10:43.595Z,16.83
2023-05-20T13:13:13.944Z,16.85
2023-05-20T13:15:42.383Z,17.65
2023-05-20T13:18:11.181Z,17.30
2023-05-20T13:20:39.631Z,17.27
2023-05-20T13:23:08.190Z,16.52
2023-05-20T13:25:36.814Z,16.67
2023-05-20T13:28:05.303Z,17.33
2023-05-20T13:30:35.370Z,17.13
2023-05-20T13:33:04.177Z,17.63
2023-05-20T13:35:32.692Z,17.38
2023-05-20T13:38:01.392Z,18.00
2023-05-20T13:40:29.815Z,17.35
2023-05-20T13:42:58.431Z,16.55
2023-05-20T13:45:27.569Z,17.85
2023-05-20T13:47:57.518Z,15.32
2023-05-20T13:50:26.086Z,16.77
2023-05-20T13:52:54.652Z,18.40
2023-05-20T13:55:24.696Z,28.15
2023-05-20T13:57:54.428Z,25.73
2023-05-20T14:00:22.993Z,25.05
2023-05-20T14:02:51.559Z,22.25
2023-05-20T14:05:21.539Z,19.58
2023-05-20T14:07:50.000Z,18.63
2023-05-20T14:10:18.509Z,19.38
2023-05-20T14:12:48.262Z,16.77
2023-05-20T14:15:16.971Z,16.65
2023-05-20T14:17:45.519Z,16.52
2023-05-20T14:20:14.387Z,18.05
2023-05-20T14:22:44.757Z,17.63
2023-05-20T14:25:13.319Z,19.33
2023-05-20T14:27:41.807Z,19.70
2023-05-20T14:30:11.174Z,20.23
2023-05-20T14:32:39.720Z,19.80
2023-05-20T14:35:08.813Z,17.08
2023-05-20T14:37:37.256Z,16.73
2023-05-20T14:40:08.468Z,18.88
2023-05-20T14:42:36.978Z,20.25
2023-05-20T14:45:05.743Z,19.77
2023-05-20T14:47:34.324Z,20.33
2023-05-20T14:50:03.392Z,21.35
2023-05-20T14:52:32.021Z,20.27
2023-05-20T14:55:00.488Z,19.20
2023-05-20T14:57:30.427Z,19.55
2023-05-20T14:59:58.878Z,19.83
2023-05-20T15:02:27.409Z,20.35
2023-05-20T15:04:55.962Z,19.58
2023-05-20T15:07:24.802Z,20.10
2023-05-20T15:09:53.252Z,19.83
2023-05-20T15:12:21.745Z,20.40
2023-05-20T15:14:51.592Z,18.60
2023-05-20T15:17:20.027Z,18.50
2023-05-20T15:19:48.484Z,20.10
2023-05-20T15:22:16.929Z,19.17
2023-05-20T15:24:45.531Z,20.00
2023-05-20T15:27:14.369Z,20.88
2023-05-20T15:29:42.871Z,20.35
2023-05-20T15:32:12.858Z,20.42
2023-05-20T15:34:41.623Z,20.10
2023-05-20T15:37:10.045Z,19.65
2023-05-20T15:39:39.521Z,20.73
2023-05-20T15:42:08.214Z,20.63
2023-05-20T15:44:37.102Z,21.52
2023-05-20T15:47:06.176Z,20.90
2023-05-20T15:49:36.154Z,21.90
2023-05-20T15:52:04.809Z,21.83
2023-05-20T15:54:33.482Z,21.95
2023-05-20T15:57:02.702Z,21.48
2023-05-20T15:59:31.509Z,21.58
2023-05-20T16:02:00.190Z,21.08
2023-05-20T16:04:28.868Z,22.65
2023-05-20T16:06:58.845Z,21.83
2023-05-20T16:09:27.272Z,20.85
2023-05-20T16:11:56.235Z,20.70
2023-05-20T16:14:24.705Z,20.42
2023-05-20T16:16:53.176Z,21.30
2023-05-20T16:19:21.706Z,20.95
2023-05-20T16:21:50.395Z,20.70
2023-05-20T16:24:20.225Z,20.70
2023-05-20T16:26:48.725Z,20.30
2023-05-20T16:29:17.222Z,19.60
2023-05-20T16:31:47.150Z,20.80
2023-05-20T16:34:16.376Z,21.33
2023-05-20T16:36:46.407Z,19.70
2023-05-20T16:39:14.967Z,19.90
2023-05-20T16:41:45.021Z,19.73
2023-05-20T16:44:13.476Z,19.70
2023-05-20T16:46:42.099Z,20.42
2023-05-20T16:49:10.580Z,20.02
2023-05-20T16:51:39.027Z,20.33
2023-05-20T16:54:08.228Z,19.23
2023-05-20T16:56:37.145Z,19.83
2023-05-20T16:59:07.340Z,19.58
2023-05-20T17:01:36.848Z,21.35
2023-05-20T17:04:05.535Z,19.92
2023-05-20T17:06:34.362Z,21.15
2023-05-20T17:09:04.539Z,21.63
2023-05-20T17:11:33.106Z,22.02
2023-05-20T17:14:01.633Z,22.88
2023-05-20T17:16:31.620Z,23.13
2023-05-20T17:19:00.259Z,21.98
2023-05-20T17:21:28.740Z,22.08
2023-05-20T17:23:57.215Z,21.27
2023-05-20T17:26:26.028Z,22.33
2023-05-20T17:28:54.595Z,22.33
2023-05-20T17:31:23.045Z,22.27
2023-05-20T17:33:52.966Z,22.35
2023-05-20T17:36:22.761Z,23.50
2023-05-20T17:38:51.522Z,23.42
2023-05-20T17:41:20.019Z,24.52
2023-05-20T17:43:48.470Z,23.88
2023-05-20T17:46:17.127Z,24.30
2023-05-20T17:48:45.788Z,25.08
2023-05-20T17:51:16.920Z,24.08
2023-05-20T17:53:45.744Z,24.92
2023-05-20T17:56:14.756Z,25.10
2023-05-20T17:58:45.006Z,25.83
2023-05-20T18:01:13.532Z,26.83
2023-05-20T18:03:42.154Z,25.92
2023-05-20T18:06:10.724Z,27.15
2023-05-20T18:08:40.575Z,28.15
2023-05-20T18:11:09.078Z,26.40
2023-05-20T18:13:37.623Z,26.30
2023-05-20T18:16:06.600Z,27.02
2023-05-20T18:18:35.185Z,26.05
2023-05-20T18:21:05.920Z,26.13
2023-05-20T18:23:34.380Z,26.73
2023-05-20T18:26:07.001Z,27.75
2023-05-20T18:28:35.562Z,27.40
2023-05-20T18:31:04.041Z,26.73
2023-05-20T18:33:32.537Z,27.85
2023-05-20T18:36:00.995Z,26.85
2023-05-20T18:38:29.424Z,27.50
2023-05-20T18:40:57.926Z,27.75
2023-05-20T18:43:27.777Z,29.17
2023-05-20T18:45:56.373Z,29.33
2023-05-20T18:48:26.935Z,29.17
2023-05-20T18:50:56.595Z,27.70
2023-05-20T18:53:25.055Z,28.13
2023-05-20T18:55:53.527Z,27.83
2023-05-20T18:58:22.854Z,28.35
2023-05-20T19:00:52.733Z,28.52
2023-05-20T19:03:23.459Z,30.30
2023-05-20T19:05:52.238Z,28.95
2023-05-20T19:08:20.766Z,29.33
2023-05-20T19:10:49.251Z,29.75
2023-05-20T19:13:17.721Z,30.27
2023-05-20T19:15:46.178Z,31.33
2023-05-20T19:18:16.351Z,31.88
2023-05-20T19:20:44.818Z,30.85
2023-05-20T19:23:13.267Z,32.00
2023-05-20T19:25:41.792Z,32.35
2023-05-20T19:28:10.229Z,32.05
2023-05-20T19:30:38.713Z,30.88
2023-05-20T19:33:07.610Z,30.58
2023-05-20T19:35:37.569Z,31.73
2023-05-20T19:38:06.958Z,31.40
2023-05-20T19:40:35.465Z,30.15
2023-05-20T19:43:03.957Z,32.40
2023-05-20T19:45:32.509Z,30.88
2023-05-20T19:48:01.355Z,31.80
2023-05-20T19:50:30.436Z,31.15
2023-05-20T19:53:00.484Z,30.48
2023-05-20T19:55:29.002Z,29.38
2023-05-20T19:57:57.478Z,31.92
2023-05-20T20:00:25.951Z,31.58
2023-05-20T20:02:54.697Z,31.52
2023-05-20T20:05:31.748Z,31.17
2023-05-20T20:08:01.746Z,29.98
2023-05-20T20:10:31.581Z,30.52
2023-05-20T20:13:00.026Z,29.70
2023-05-20T20:15:30.159Z,31.33
2023-05-20T20:17:58.774Z,30.58
2023-05-20T20:20:27.721Z,30.63
2023-05-20T20:22:56.524Z,30.85
2023-05-20T20:25:26.907Z,29.35
2023-05-20T20:27:55.586Z,30.58
2023-05-20T20:30:24.144Z,30.27
2023-05-20T20:32:53.446Z,31.45
2023-05-20T20:35:23.408Z,31.08
2023-05-20T20:37:54.425Z,31.58
2023-05-20T20:40:23.010Z,32.33
2023-05-20T20:42:54.726Z,33.13
2023-05-20T20:45:23.789Z,31.38
2023-05-20T20:47:54.762Z,32.35
2023-05-20T20:50:23.443Z,32.05
2023-05-20T20:52:52.046Z,32.08
2023-05-20T20:55:20.829Z,32.80
2023-05-20T20:57:49.721Z,32.00
2023-05-20T21:00:21.274Z,31.30
2023-05-20T21:02:49.784Z,31.95
2023-05-20T21:05:18.398Z,32.17
2023-05-20T21:07:50.281Z,32.55
2023-05-20T21:10:18.760Z,31.23
2023-05-20T21:12:47.272Z,32.00
2023-05-20T21:15:15.973Z,31.10
2023-05-20T21:17:45.857Z,31.42
2023-05-20T21:20:15.240Z,31.88
2023-05-20T21:22:43.726Z,30.42
2023-05-20T21:25:13.159Z,30.00
2023-05-20T21:27:42.306Z,29.90
2023-05-20T21:30:11.237Z,29.38
2023-05-20T21:32:40.049Z,31.45
2023-05-20T21:35:10.740Z,30.50
2023-05-20T21:37:39.473Z,30.73
2023-05-20T21:40:08.762Z,30.08
2023-05-20T21:42:37.810Z,30.98
2023-05-20T21:45:06.653Z,30.60
2023-05-20T21:47:35.189Z,31.20
2023-05-20T21:50:03.860Z,31.30
2023-05-20T21:52:33.772Z,30.88
2023-05-20T21:55:02.319Z,31.15
2023-05-20T21:57:30.835Z,31.35
2023-05-20T21:59:59.384Z,32.67
2023-05-20T22:02:27.901Z,30.85
2023-05-20T22:04:57.749Z,30.70
2023-05-20T22:07:26.253Z,30.38
2023-05-20T22:09:56.109Z,30.20
2023-05-20T22:12:24.569Z,30.02
2023-05-20T22:14:53.051Z,29.80
2023-05-20T22:17:21.892Z,29.60
2023-05-20T22:19:50.443Z,28.30
2023-05-20T22:22:18.998Z,26.27
2023-05-20T22:24:47.425Z,28.15
2023-05-20T22:27:17.299Z,26.58
2023-05-20T22:29:46.269Z,26.52
2023-05-20T22:32:14.744Z,25.70
2023-05-20T22:34:45.195Z,26.40
2023-05-20T22:37:13.723Z,25.48
2023-05-20T22:39:42.139Z,25.48
2023-05-20T22:42:10.601Z,24.30
2023-05-20T22:44:40.718Z,23.40
2023-05-20T22:47:10.543Z,22.88
2023-05-20T22:49:40.431Z,22.60
2023-05-20T22:52:08.945Z,22.50
2023-05-20T22:54:37.421Z,22.27
2023-05-20T22:57:06.211Z,20.98
2023-05-20T22:59:36.672Z,21.48
2023-05-20T23:02:06.819Z,19.48
2023-05-20T23:04:35.458Z,19.85
2023-05-20T23:07:05.532Z,19.35
2023-05-20T23:09:34.007Z,18.80
2023-05-20T23:12:02.451Z,18.40
2023-05-20T23:14:31.518Z,17.95
2023-05-20T23:17:00.092Z,17.48
2023-05-20T23:19:30.069Z,17.50
2023-05-20T23:21:58.648Z,16.60
2023-05-20T23:24:27.169Z,16.90
2023-05-20T23:26:55.618Z,15.73
2023-05-20T23:29:24.071Z,16.13
2023-05-20T23:31:52.485Z,15.10
2023-05-20T23:34:21.429Z,15.05
2023-05-20T23:36:52.932Z,14.68
2023-05-20T23:39:21.363Z,15.05
2023-05-20T23:41:50.449Z,14.48
2023-05-20T23:44:18.933Z,14.35
2023-05-20T23:46:49.632Z,15.52
2023-05-20T23:49:22.532Z,13.48
2023-05-20T23:51:52.889Z,14.13
2023-05-20T23:54:21.348Z,13.77
2023-05-20T23:56:49.859Z,14.35
2023-05-20T23:59:18.444Z,13.68
